Terminal Aerodrome Forecast
Issued by NWS

Home | Current Version | Previous Version | Text Only | Print | Product List | Glossary On
Versions: 1 2 3 4 5 6 7 8 9 10 11 12 13 14 15 16 17 18 19 20
000
FTUS45 KPSR 240535
TAFIWA
TAF
KIWA 240535Z 2406/2506 13012KT P6SM VCTS BKN100CB BKN150
      TEMPO 2406/2408 34012KT 6SM -TSRA BR BKN100CB BKN150
     FM240800 08006KT P6SM SCT100 BKN200
     FM242100 29006KT P6SM SCT090
     FM250300 07008KT P6SM SCT150
      AMD LTD TO CLD VIS AND WIND TIL 241300=

USA.gov is the U.S. government's official web portal to all federal, state and local government web resources and services.